createdAt,value
2022-11-16T00:00:53.864Z,989.98
2022-11-16T00:01:53.829Z,990.00
2022-11-16T00:02:53.662Z,990.00
2022-11-16T00:03:53.645Z,989.96
2022-11-16T00:04:53.645Z,989.99
2022-11-16T00:05:53.670Z,989.98
2022-11-16T00:06:53.658Z,989.91
2022-11-16T00:07:53.822Z,989.94
2022-11-16T00:08:53.838Z,989.89
2022-11-16T00:09:53.892Z,989.90
2022-11-16T00:10:53.891Z,989.84
2022-11-16T00:11:53.890Z,989.85
2022-11-16T00:12:53.856Z,989.86
2022-11-16T00:13:53.651Z,989.82
2022-11-16T00:14:53.659Z,989.83
2022-11-16T00:15:53.668Z,989.83
2022-11-16T00:16:53.555Z,989.76
2022-11-16T00:17:53.542Z,989.78
2022-11-16T00:18:53.608Z,989.78
2022-11-16T00:19:53.530Z,989.74
2022-11-16T00:20:53.699Z,989.77
2022-11-16T00:21:53.701Z,989.74
2022-11-16T00:22:54.962Z,989.75
2022-11-16T00:23:53.720Z,989.72
2022-11-16T00:24:53.720Z,989.73
2022-11-16T00:25:53.737Z,989.76
2022-11-16T00:26:53.739Z,989.69
2022-11-16T00:27:53.548Z,989.72
2022-11-16T00:28:53.749Z,989.74
2022-11-16T00:29:53.658Z,989.72
2022-11-16T00:30:53.560Z,989.70
2022-11-16T00:31:53.617Z,989.65
2022-11-16T00:32:53.781Z,989.68
2022-11-16T00:33:53.787Z,989.63
2022-11-16T00:34:55.070Z,989.66
2022-11-16T00:35:53.420Z,989.64
2022-11-16T00:36:53.426Z,989.64
2022-11-16T00:37:53.421Z,989.59
2022-11-16T00:38:53.417Z,989.63
2022-11-16T00:39:53.397Z,989.56
2022-11-16T00:40:53.388Z,989.58
2022-11-16T00:41:53.398Z,989.56
2022-11-16T00:42:53.425Z,989.60
2022-11-16T00:43:53.457Z,989.52
2022-11-16T00:44:53.478Z,989.60
2022-11-16T00:45:53.476Z,989.52
2022-11-16T00:46:53.397Z,989.51
2022-11-16T00:47:57.776Z,989.50
2022-11-16T00:48:53.499Z,989.52
2022-11-16T00:49:53.505Z,989.48
2022-11-16T00:50:53.349Z,989.44
2022-11-16T00:51:53.525Z,989.48
2022-11-16T00:52:53.345Z,989.46
2022-11-16T00:53:53.314Z,989.47
2022-11-16T00:54:53.325Z,989.41
2022-11-16T00:55:53.496Z,989.42
2022-11-16T00:56:53.355Z,989.43
2022-11-16T00:57:53.366Z,989.38
2022-11-16T00:58:53.344Z,989.39
2022-11-16T00:59:53.576Z,989.41
2022-11-16T01:00:53.638Z,989.43
2022-11-16T01:01:53.617Z,989.38
2022-11-16T01:02:53.373Z,989.36
2022-11-16T01:03:53.602Z,989.38
2022-11-16T01:04:53.373Z,989.34
2022-11-16T01:05:53.723Z,989.34
2022-11-16T01:06:53.759Z,989.29
2022-11-16T01:07:53.619Z,989.31
2022-11-16T01:08:53.757Z,989.31
2022-11-16T01:09:53.622Z,989.29
2022-11-16T01:10:53.272Z,989.24
2022-11-16T01:11:53.231Z,989.25
2022-11-16T01:12:53.795Z,989.26
2022-11-16T01:13:53.652Z,989.21
2022-11-16T01:14:53.835Z,989.21
2022-11-16T01:15:53.281Z,989.12
2022-11-16T01:16:53.468Z,989.18
2022-11-16T01:17:53.271Z,989.14
2022-11-16T01:18:53.684Z,989.15
2022-11-16T01:19:53.491Z,989.21
2022-11-16T01:20:53.109Z,989.22
2022-11-16T01:21:53.152Z,989.16
2022-11-16T01:22:53.109Z,989.20
2022-11-16T01:23:53.112Z,989.18
2022-11-16T01:24:53.152Z,989.16
2022-11-16T01:25:53.141Z,989.20
2022-11-16T01:26:53.129Z,989.24
2022-11-16T01:27:53.287Z,989.21
2022-11-16T01:28:53.288Z,989.19
2022-11-16T01:29:53.378Z,989.25
2022-11-16T01:30:53.409Z,989.22
2022-11-16T01:31:53.376Z,989.18
2022-11-16T01:32:53.170Z,989.23
2022-11-16T01:33:53.178Z,989.21
2022-11-16T01:34:53.007Z,989.16
2022-11-16T01:35:53.189Z,989.18
2022-11-16T01:36:53.037Z,989.17
2022-11-16T01:37:53.210Z,989.19
2022-11-16T01:38:53.418Z,989.17
2022-11-16T01:39:53.626Z,989.11
2022-11-16T01:40:53.636Z,989.16
2022-11-16T01:41:53.646Z,989.07
2022-11-16T01:42:53.077Z,989.10
2022-11-16T01:43:52.975Z,989.09
2022-11-16T01:44:53.385Z,989.09
2022-11-16T01:45:53.056Z,989.12
2022-11-16T01:46:53.267Z,989.09
2022-11-16T01:47:53.427Z,989.09
2022-11-16T01:48:53.102Z,989.13
2022-11-16T01:49:53.411Z,989.11
2022-11-16T01:50:53.817Z,989.11
2022-11-16T01:51:52.936Z,989.09
2022-11-16T01:52:53.104Z,989.12
2022-11-16T01:53:53.115Z,989.05
2022-11-16T01:54:53.025Z,989.05
2022-11-16T01:55:52.934Z,989.04
2022-11-16T01:56:52.935Z,989.01
2022-11-16T01:57:52.962Z,989.07
2022-11-16T01:58:52.965Z,988.99
2022-11-16T01:59:52.974Z,988.95
2022-11-16T02:00:53.008Z,988.99
2022-11-16T02:01:52.832Z,988.96
2022-11-16T02:04:18.977Z,988.94
2022-11-16T02:05:18.985Z,988.88
2022-11-16T02:06:19.006Z,988.90
2022-11-16T02:07:19.149Z,988.89
2022-11-16T02:08:19.116Z,988.89
2022-11-16T02:09:20.205Z,988.90
2022-11-16T02:10:19.126Z,988.86
2022-11-16T02:11:18.764Z,988.80
2022-11-16T02:12:19.239Z,988.83
2022-11-16T02:13:18.756Z,988.87
2022-11-16T02:14:18.706Z,988.81
2022-11-16T02:15:19.165Z,988.76
2022-11-16T02:16:18.704Z,988.75
2022-11-16T02:17:18.716Z,988.83
2022-11-16T02:18:18.733Z,988.79
2022-11-16T02:19:18.685Z,988.75
2022-11-16T02:20:18.898Z,988.68
2022-11-16T02:21:18.684Z,988.69
2022-11-16T02:22:19.103Z,988.75
2022-11-16T02:23:19.003Z,988.71
2022-11-16T02:24:18.912Z,988.68
2022-11-16T02:25:19.325Z,988.63
2022-11-16T02:26:18.752Z,988.63
2022-11-16T02:27:18.842Z,988.60
2022-11-16T02:28:18.656Z,988.58
2022-11-16T02:29:18.625Z,988.61
2022-11-16T02:30:19.083Z,988.59
2022-11-16T02:31:19.062Z,988.62
2022-11-16T02:32:19.073Z,988.55
2022-11-16T02:33:18.762Z,988.55
2022-11-16T02:34:18.572Z,988.53
2022-11-16T02:35:18.692Z,988.50
2022-11-16T02:36:18.587Z,988.50
2022-11-16T02:37:18.701Z,988.47
2022-11-16T02:38:18.700Z,988.44
2022-11-16T02:39:18.810Z,988.50
2022-11-16T02:40:18.609Z,988.46
2022-11-16T02:41:18.546Z,988.50
2022-11-16T02:42:18.530Z,988.46
2022-11-16T02:43:18.629Z,988.46
2022-11-16T02:44:18.751Z,988.42
2022-11-16T02:45:18.538Z,988.40
2022-11-16T02:46:18.547Z,988.42
2022-11-16T02:47:18.547Z,988.39
2022-11-16T02:48:18.868Z,988.36
2022-11-16T02:49:18.559Z,988.42
2022-11-16T02:50:18.468Z,988.35
2022-11-16T02:51:18.899Z,988.40
2022-11-16T02:52:18.486Z,988.37
2022-11-16T02:53:18.707Z,988.40
2022-11-16T02:54:18.919Z,988.39
2022-11-16T02:55:18.506Z,988.38
2022-11-16T02:56:19.026Z,988.36
2022-11-16T02:57:18.436Z,988.34
2022-11-16T02:58:18.444Z,988.32
2022-11-16T02:59:19.155Z,988.38
2022-11-16T03:00:18.546Z,988.36
2022-11-16T03:01:19.393Z,988.30
2022-11-16T03:02:18.387Z,988.40
2022-11-16T03:03:18.614Z,988.37
2022-11-16T03:04:18.395Z,988.38
2022-11-16T03:05:18.672Z,988.37
2022-11-16T03:06:19.615Z,988.36
2022-11-16T03:07:18.978Z,988.38
2022-11-16T03:08:19.004Z,988.40
2022-11-16T03:09:18.573Z,988.36
2022-11-16T03:10:18.864Z,988.42
2022-11-16T03:11:18.704Z,988.35
2022-11-16T03:12:18.324Z,988.33
2022-11-16T03:13:18.347Z,988.37
2022-11-16T03:14:18.326Z,988.33
2022-11-16T03:15:18.441Z,988.33
2022-11-16T03:16:18.333Z,988.32
2022-11-16T03:17:18.587Z,988.31
2022-11-16T03:18:18.364Z,988.34
2022-11-16T03:19:18.580Z,988.26
2022-11-16T03:20:18.264Z,988.29
2022-11-16T03:21:18.250Z,988.26
2022-11-16T03:22:18.362Z,988.22
2022-11-16T03:23:18.252Z,988.24
2022-11-16T03:24:18.501Z,988.26
2022-11-16T03:25:18.509Z,988.27
2022-11-16T03:26:18.218Z,988.25
2022-11-16T03:27:18.230Z,988.25
2022-11-16T03:28:18.612Z,988.27
2022-11-16T03:29:18.419Z,988.23
2022-11-16T03:30:23.172Z,988.23
2022-11-16T03:31:18.760Z,988.26
2022-11-16T03:32:18.182Z,988.27
2022-11-16T03:33:18.205Z,988.27
2022-11-16T03:34:18.181Z,988.23
2022-11-16T03:35:19.609Z,988.22
2022-11-16T03:36:18.171Z,988.23
2022-11-16T03:37:18.215Z,988.19
2022-11-16T03:38:18.190Z,988.20
2022-11-16T03:39:18.287Z,988.22
2022-11-16T03:40:18.281Z,988.18
2022-11-16T03:41:18.300Z,988.17
2022-11-16T03:42:18.109Z,988.20
2022-11-16T03:43:18.298Z,988.19
2022-11-16T03:44:18.257Z,988.17
2022-11-16T03:45:18.317Z,988.21
2022-11-16T03:46:18.109Z,988.19
2022-11-16T03:47:18.119Z,988.25
2022-11-16T03:48:18.057Z,988.30
2022-11-16T03:49:18.085Z,988.28
2022-11-16T03:50:18.475Z,988.33
2022-11-16T03:51:18.493Z,988.29
2022-11-16T03:52:18.147Z,988.37
2022-11-16T03:53:18.496Z,988.30
2022-11-16T03:54:18.526Z,988.32
2022-11-16T03:55:18.015Z,988.31
2022-11-16T03:56:18.007Z,988.29
2022-11-16T03:57:18.006Z,988.29
2022-11-16T03:58:17.995Z,988.30
2022-11-16T03:59:18.511Z,988.33
2022-11-16T04:00:18.004Z,988.27
2022-11-16T04:01:18.030Z,988.30
2022-11-16T04:02:18.146Z,988.33
2022-11-16T04:03:18.156Z,988.32
2022-11-16T04:04:17.975Z,988.30
2022-11-16T04:05:18.165Z,988.38
2022-11-16T04:06:17.973Z,988.40
2022-11-16T04:07:19.482Z,988.32
2022-11-16T04:08:18.402Z,988.34
2022-11-16T04:09:18.045Z,988.36
2022-11-16T04:10:18.405Z,988.34
2022-11-16T04:11:18.484Z,988.38
2022-11-16T04:12:18.624Z,988.38
2022-11-16T04:13:18.222Z,988.33
2022-11-16T04:14:17.890Z,988.37
2022-11-16T04:15:17.905Z,988.33
2022-11-16T04:16:17.892Z,988.32
2022-11-16T04:17:17.880Z,988.27
2022-11-16T04:18:18.662Z,988.27
2022-11-16T04:19:17.874Z,988.25
2022-11-16T04:20:17.876Z,988.31
2022-11-16T04:21:17.873Z,988.30
2022-11-16T04:22:17.873Z,988.27
2022-11-16T04:23:17.884Z,988.22
2022-11-16T04:24:17.889Z,988.24
2022-11-16T04:25:17.841Z,988.21
2022-11-16T04:26:17.905Z,988.27
2022-11-16T04:27:17.911Z,988.27
2022-11-16T04:28:17.913Z,988.27
2022-11-16T04:29:17.921Z,988.28
2022-11-16T04:30:17.803Z,988.28
2022-11-16T04:31:17.810Z,988.30
2022-11-16T04:33:44.048Z,988.33
2022-11-16T04:34:43.961Z,988.28
2022-11-16T04:35:44.040Z,988.34
2022-11-16T04:36:43.783Z,988.30
2022-11-16T04:37:43.763Z,988.32
2022-11-16T04:38:43.742Z,988.27
2022-11-16T04:39:43.790Z,988.29
2022-11-16T04:40:43.803Z,988.26
2022-11-16T04:41:43.880Z,988.31
2022-11-16T04:42:43.681Z,988.33
2022-11-16T04:43:43.819Z,988.33
2022-11-16T04:44:44.040Z,988.28
2022-11-16T04:45:44.053Z,988.28
2022-11-16T04:46:44.048Z,988.22
2022-11-16T04:47:43.849Z,988.30
2022-11-16T04:48:43.650Z,988.28
2022-11-16T04:49:43.694Z,988.29
2022-11-16T04:50:44.279Z,988.25
2022-11-16T04:51:43.610Z,988.23
2022-11-16T04:52:44.297Z,988.22
2022-11-16T04:53:43.891Z,988.24
2022-11-16T04:54:44.118Z,988.17
2022-11-16T04:55:43.678Z,988.19
2022-11-16T04:56:44.116Z,988.24
2022-11-16T04:57:44.330Z,988.21
2022-11-16T04:58:43.717Z,988.23
2022-11-16T04:59:43.597Z,988.34
2022-11-16T05:00:43.938Z,988.32
2022-11-16T05:01:44.237Z,988.32
2022-11-16T05:02:43.548Z,988.34
2022-11-16T05:03:43.555Z,988.32
2022-11-16T05:04:43.556Z,988.33
2022-11-16T05:05:43.567Z,988.38
2022-11-16T05:06:43.777Z,988.34
2022-11-16T05:07:43.639Z,988.39
2022-11-16T05:08:44.530Z,988.42
2022-11-16T05:09:43.499Z,988.41
2022-11-16T05:10:43.607Z,988.43
2022-11-16T05:11:43.489Z,988.29
2022-11-16T05:12:43.507Z,988.36
2022-11-16T05:13:43.508Z,988.37
2022-11-16T05:14:43.479Z,988.35
2022-11-16T05:15:43.535Z,988.38
2022-11-16T05:16:43.484Z,988.37
2022-11-16T05:17:43.456Z,988.38
2022-11-16T05:18:43.455Z,988.37
2022-11-16T05:19:43.465Z,988.35
2022-11-16T05:20:43.675Z,988.39
2022-11-16T05:21:43.474Z,988.37
2022-11-16T05:22:43.686Z,988.43
2022-11-16T05:23:43.704Z,988.44
2022-11-16T05:24:43.495Z,988.46
2022-11-16T05:25:43.703Z,988.40
2022-11-16T05:26:43.563Z,988.41
2022-11-16T05:27:43.722Z,988.40
2022-11-16T05:28:43.381Z,988.40
2022-11-16T05:29:43.543Z,988.41
2022-11-16T05:30:43.373Z,988.40
2022-11-16T05:31:43.743Z,988.42
2022-11-16T05:32:43.752Z,988.37
2022-11-16T05:33:43.342Z,988.42
2022-11-16T05:34:43.739Z,988.38
2022-11-16T05:35:43.980Z,988.38
2022-11-16T05:36:43.821Z,988.42
2022-11-16T05:37:43.993Z,988.40
2022-11-16T05:38:43.996Z,988.43
2022-11-16T05:39:44.014Z,988.37
2022-11-16T05:40:43.300Z,988.35
2022-11-16T05:41:43.814Z,988.36
2022-11-16T05:42:43.290Z,988.34
2022-11-16T05:43:43.269Z,988.36
2022-11-16T05:44:43.261Z,988.40
2022-11-16T05:45:43.428Z,988.43
2022-11-16T05:46:43.641Z,988.43
2022-11-16T05:47:43.280Z,988.42
2022-11-16T05:48:43.472Z,988.42
2022-11-16T05:49:43.870Z,988.47
2022-11-16T05:50:43.440Z,988.46
2022-11-16T05:51:44.087Z,988.49
2022-11-16T05:52:43.270Z,988.53
2022-11-16T05:53:43.279Z,988.54
2022-11-16T05:54:43.279Z,988.59
2022-11-16T05:55:43.605Z,988.64
2022-11-16T05:56:44.644Z,988.62
2022-11-16T05:57:43.170Z,988.61
2022-11-16T05:58:43.168Z,988.66
2022-11-16T05:59:43.170Z,988.64
2022-11-16T06:00:43.170Z,988.68
2022-11-16T06:01:43.149Z,988.68
2022-11-16T06:02:43.210Z,988.76
2022-11-16T06:03:43.154Z,988.67
2022-11-16T06:04:43.149Z,988.68
2022-11-16T06:05:43.159Z,988.71
2022-11-16T06:06:43.167Z,988.71
2022-11-16T06:07:43.177Z,988.64
2022-11-16T06:08:43.189Z,988.71
2022-11-16T06:09:43.198Z,988.72
2022-11-16T06:10:43.196Z,988.71
2022-11-16T06:11:43.208Z,988.71
2022-11-16T06:12:43.226Z,988.71
2022-11-16T06:13:43.253Z,988.70
2022-11-16T06:14:43.237Z,988.66
2022-11-16T06:17:09.247Z,988.70
2022-11-16T06:18:09.455Z,988.71
2022-11-16T06:19:09.467Z,988.75
2022-11-16T06:20:09.474Z,988.74
2022-11-16T06:21:09.475Z,988.76
2022-11-16T06:22:09.485Z,988.79
2022-11-16T06:23:09.497Z,988.80
2022-11-16T06:24:09.312Z,988.84
2022-11-16T06:25:09.295Z,988.84
2022-11-16T06:26:09.525Z,988.87
2022-11-16T06:27:08.954Z,988.82
2022-11-16T06:28:08.953Z,988.84
2022-11-16T06:29:09.122Z,988.84
2022-11-16T06:30:09.153Z,988.84
2022-11-16T06:31:09.134Z,988.88
2022-11-16T06:32:09.143Z,988.89
2022-11-16T06:33:08.943Z,988.84
2022-11-16T06:34:09.364Z,988.92
2022-11-16T06:35:08.984Z,988.92
2022-11-16T06:36:08.973Z,988.95
2022-11-16T06:37:08.973Z,988.90
2022-11-16T06:38:09.192Z,988.90
2022-11-16T06:39:09.196Z,988.95
2022-11-16T06:40:09.208Z,988.96
2022-11-16T06:41:09.413Z,988.94
2022-11-16T06:42:09.210Z,988.94
2022-11-16T06:43:09.042Z,988.97
2022-11-16T06:44:09.031Z,989.03
2022-11-16T06:45:09.043Z,989.01
2022-11-16T06:46:08.851Z,988.98
2022-11-16T06:47:08.861Z,989.05
2022-11-16T06:48:08.870Z,989.03
2022-11-16T06:49:08.861Z,989.03
2022-11-16T06:50:09.110Z,989.05
2022-11-16T06:51:08.860Z,989.09
2022-11-16T06:52:08.873Z,989.12
2022-11-16T06:53:08.871Z,989.09
2022-11-16T06:54:08.889Z,989.08
2022-11-16T06:55:08.756Z,989.07
2022-11-16T06:56:10.428Z,989.11
2022-11-16T06:57:08.900Z,989.11
2022-11-16T06:58:08.810Z,989.09
2022-11-16T06:59:08.729Z,989.12
2022-11-16T07:00:08.726Z,989.11
2022-11-16T07:01:08.939Z,989.13
2022-11-16T07:02:08.822Z,989.15
2022-11-16T07:03:08.747Z,989.15
2022-11-16T07:04:08.708Z,989.14
2022-11-16T07:05:08.761Z,989.15
2022-11-16T07:06:08.897Z,989.13
2022-11-16T07:07:09.020Z,989.23
2022-11-16T07:08:08.675Z,989.19
2022-11-16T07:09:08.997Z,989.21
2022-11-16T07:10:09.018Z,989.21
2022-11-16T07:11:09.006Z,989.24
2022-11-16T07:12:09.111Z,989.25
2022-11-16T07:13:09.016Z,989.27
2022-11-16T07:14:08.814Z,989.29
2022-11-16T07:15:08.635Z,989.34
2022-11-16T07:16:08.627Z,989.33
2022-11-16T07:17:09.778Z,989.29
2022-11-16T07:18:08.616Z,989.30
2022-11-16T07:19:08.608Z,989.34
2022-11-16T07:20:08.606Z,989.30
2022-11-16T07:21:08.623Z,989.32
2022-11-16T07:22:08.643Z,989.37
2022-11-16T07:23:13.860Z,989.32
2022-11-16T07:24:08.661Z,989.30
2022-11-16T07:25:08.675Z,989.32
2022-11-16T07:26:08.552Z,989.38
2022-11-16T07:27:08.707Z,989.33
2022-11-16T07:28:08.832Z,989.38
2022-11-16T07:29:08.531Z,989.38
2022-11-16T07:30:08.524Z,989.39
2022-11-16T07:31:08.517Z,989.36
2022-11-16T07:32:08.536Z,989.43
2022-11-16T07:33:08.773Z,989.43
2022-11-16T07:34:08.782Z,989.43
2022-11-16T07:35:08.493Z,989.47
2022-11-16T07:36:08.483Z,989.44
2022-11-16T07:37:08.822Z,989.52
2022-11-16T07:38:08.841Z,989.54
2022-11-16T07:39:08.863Z,989.55
2022-11-16T07:40:08.781Z,989.56
2022-11-16T07:41:08.480Z,989.57
2022-11-16T07:42:08.591Z,989.59
2022-11-16T07:43:08.431Z,989.61
2022-11-16T07:44:11.929Z,989.64
2022-11-16T07:45:08.621Z,989.63
2022-11-16T07:46:44.767Z,989.67
2022-11-16T07:47:08.700Z,989.67
2022-11-16T07:48:08.649Z,989.67
2022-11-16T07:49:11.547Z,989.67
2022-11-16T07:50:08.862Z,989.72
2022-11-16T07:51:08.859Z,989.69
2022-11-16T07:52:08.398Z,989.74
2022-11-16T07:53:08.506Z,989.73
2022-11-16T07:54:08.669Z,989.77
2022-11-16T07:55:09.099Z,989.75
2022-11-16T07:56:09.110Z,989.75
2022-11-16T07:57:09.150Z,989.74
2022-11-16T07:58:08.358Z,989.80
2022-11-16T07:59:09.127Z,989.78
2022-11-16T08:00:08.337Z,989.83
2022-11-16T08:01:09.129Z,989.85
2022-11-16T08:02:08.380Z,989.79
2022-11-16T08:04:19.808Z,989.83
2022-11-16T08:05:19.816Z,989.87
2022-11-16T08:06:19.518Z,989.86
2022-11-16T08:07:19.851Z,989.90
2022-11-16T08:08:19.867Z,989.91
2022-11-16T08:09:19.845Z,989.94
2022-11-16T08:10:19.869Z,989.88
2022-11-16T08:11:19.466Z,989.86
2022-11-16T08:12:19.476Z,989.91
2022-11-16T08:13:19.466Z,989.93
2022-11-16T08:14:19.468Z,989.99
2022-11-16T08:15:19.475Z,989.92
2022-11-16T08:16:19.485Z,989.97
2022-11-16T08:17:19.487Z,989.94
2022-11-16T08:18:19.420Z,989.99
2022-11-16T08:19:19.415Z,990.06
2022-11-16T08:20:19.406Z,989.99
2022-11-16T08:21:20.699Z,989.94
2022-11-16T08:22:19.424Z,990.00
2022-11-16T08:23:19.384Z,989.88
2022-11-16T08:24:19.465Z,989.96
2022-11-16T08:25:19.477Z,989.93
2022-11-16T08:26:19.493Z,990.01
2022-11-16T08:27:19.502Z,989.93
2022-11-16T08:28:19.503Z,990.00
2022-11-16T08:29:19.524Z,989.95
2022-11-16T08:30:19.353Z,989.97
2022-11-16T08:31:19.542Z,989.95
2022-11-16T08:32:19.365Z,990.00
2022-11-16T08:33:19.372Z,990.03
2022-11-16T08:34:19.302Z,989.92
2022-11-16T08:35:19.604Z,990.00
2022-11-16T08:36:19.407Z,990.03
2022-11-16T08:37:19.311Z,990.03
2022-11-16T08:38:19.410Z,990.07
2022-11-16T08:39:19.411Z,990.06
2022-11-16T08:40:19.441Z,990.08
2022-11-16T08:41:19.404Z,990.08
2022-11-16T08:42:19.491Z,990.05
2022-11-16T08:43:19.649Z,990.13
2022-11-16T08:44:19.668Z,990.07
2022-11-16T08:45:19.671Z,990.11
2022-11-16T08:46:19.660Z,990.12
2022-11-16T08:47:19.691Z,990.11
2022-11-16T08:48:19.779Z,990.13
2022-11-16T08:49:19.290Z,990.17
2022-11-16T08:50:19.270Z,990.19
2022-11-16T08:51:20.389Z,990.11
2022-11-16T08:52:19.324Z,990.18
2022-11-16T08:53:19.499Z,990.17
2022-11-16T08:54:19.509Z,990.18
2022-11-16T08:55:19.158Z,990.21
2022-11-16T08:56:19.139Z,990.20
2022-11-16T08:57:19.742Z,990.25
2022-11-16T08:58:19.338Z,990.15
2022-11-16T08:59:19.339Z,990.27
2022-11-16T09:00:19.128Z,990.28
2022-11-16T09:01:19.261Z,990.30
2022-11-16T09:02:19.128Z,990.34
2022-11-16T09:03:19.387Z,990.36
2022-11-16T09:04:19.380Z,990.33
2022-11-16T09:05:19.167Z,990.45
2022-11-16T09:06:19.176Z,990.50
2022-11-16T09:07:19.448Z,990.45
2022-11-16T09:08:19.976Z,990.51
2022-11-16T09:09:19.396Z,990.51
2022-11-16T09:10:19.667Z,990.55
2022-11-16T09:11:19.826Z,990.55
2022-11-16T09:12:19.036Z,990.54
2022-11-16T09:13:19.366Z,990.56
2022-11-16T09:14:19.027Z,990.54
2022-11-16T09:15:19.043Z,990.53
2022-11-16T09:16:19.038Z,990.49
2022-11-16T09:17:23.133Z,990.46
2022-11-16T09:18:19.257Z,990.50
2022-11-16T09:19:19.084Z,990.46
2022-11-16T09:20:19.086Z,990.57
2022-11-16T09:21:19.125Z,990.51
2022-11-16T09:22:19.075Z,990.54
2022-11-16T09:23:24.913Z,990.57
2022-11-16T09:24:19.319Z,990.55
2022-11-16T09:25:19.023Z,990.52
2022-11-16T09:26:19.353Z,990.55
2022-11-16T09:27:19.574Z,990.53
2022-11-16T09:28:19.321Z,990.59
2022-11-16T09:29:18.926Z,990.57
2022-11-16T09:30:19.143Z,990.63
2022-11-16T09:31:23.363Z,990.63
2022-11-16T09:32:19.812Z,990.62
2022-11-16T09:33:18.976Z,990.69
2022-11-16T09:34:19.563Z,990.72
2022-11-16T09:35:19.002Z,990.71
2022-11-16T09:36:19.215Z,990.75
2022-11-16T09:37:18.862Z,990.73
2022-11-16T09:38:30.423Z,990.69
2022-11-16T09:39:30.563Z,990.71
2022-11-16T09:40:19.701Z,990.74
2022-11-16T09:41:19.024Z,990.72
2022-11-16T09:42:19.009Z,990.72
2022-11-16T09:43:18.872Z,990.73
2022-11-16T09:44:19.420Z,990.76
2022-11-16T09:45:19.634Z,990.78
2022-11-16T09:46:19.031Z,990.77
2022-11-16T09:47:19.081Z,990.79
2022-11-16T09:48:18.880Z,990.81
2022-11-16T09:49:19.282Z,990.81
2022-11-16T09:50:18.843Z,990.88
2022-11-16T09:51:19.309Z,990.88
2022-11-16T09:52:18.771Z,990.86
2022-11-16T09:53:18.870Z,990.86
2022-11-16T09:54:18.869Z,990.90
2022-11-16T09:55:18.928Z,990.93
2022-11-16T09:56:22.053Z,990.95
2022-11-16T09:57:18.889Z,990.85
2022-11-16T09:58:18.748Z,990.92
2022-11-16T09:59:19.117Z,990.96
2022-11-16T10:00:19.169Z,990.88
2022-11-16T10:01:18.746Z,990.85
2022-11-16T10:02:19.346Z,990.86
2022-11-16T10:03:19.338Z,990.87
2022-11-16T10:04:18.728Z,990.84
2022-11-16T10:05:19.149Z,990.85
2022-11-16T10:06:18.997Z,990.87
2022-11-16T10:07:19.618Z,990.81
2022-11-16T10:08:19.089Z,990.76
2022-11-16T10:09:18.706Z,990.81
2022-11-16T10:10:19.594Z,990.82
2022-11-16T10:11:18.647Z,990.83
2022-11-16T10:12:18.629Z,990.78
2022-11-16T10:13:18.662Z,990.82
2022-11-16T10:14:18.637Z,990.85
2022-11-16T10:15:18.616Z,990.81
2022-11-16T10:16:18.614Z,990.75
2022-11-16T10:17:18.640Z,990.69
2022-11-16T10:18:18.618Z,990.69
2022-11-16T10:19:18.633Z,990.66
2022-11-16T10:20:18.636Z,990.71
2022-11-16T10:21:18.646Z,990.67
2022-11-16T10:22:18.647Z,990.63
2022-11-16T10:23:18.656Z,990.67
2022-11-16T10:24:18.577Z,990.65
2022-11-16T10:25:18.559Z,990.68
2022-11-16T10:26:18.534Z,990.62
2022-11-16T10:27:21.964Z,990.59
2022-11-16T10:28:18.546Z,990.55
2022-11-16T10:29:18.824Z,990.57
2022-11-16T10:30:18.704Z,990.54
2022-11-16T10:31:18.495Z,990.60
2022-11-16T10:32:18.505Z,990.66
2022-11-16T10:33:18.698Z,990.62
2022-11-16T10:34:18.725Z,990.62
2022-11-16T10:35:18.724Z,990.64
2022-11-16T10:36:18.993Z,990.59
2022-11-16T10:37:18.803Z,990.65
2022-11-16T10:38:18.623Z,990.60
2022-11-16T10:39:18.602Z,990.64
2022-11-16T10:40:18.826Z,990.68
2022-11-16T10:41:18.622Z,990.59
2022-11-16T10:42:18.841Z,990.54
2022-11-16T10:43:18.843Z,990.54
2022-11-16T10:44:18.853Z,990.54
2022-11-16T10:45:18.407Z,990.55
2022-11-16T10:46:18.871Z,990.48
2022-11-16T10:47:18.875Z,990.51
2022-11-16T10:48:19.023Z,990.47
2022-11-16T10:49:18.630Z,990.45
2022-11-16T10:50:18.704Z,990.47
2022-11-16T10:51:18.595Z,990.51
2022-11-16T10:52:19.057Z,990.55
2022-11-16T10:53:19.057Z,990.53
2022-11-16T10:54:19.062Z,990.53
2022-11-16T10:55:18.720Z,990.56
2022-11-16T10:56:18.321Z,990.53
2022-11-16T10:57:19.080Z,990.51
2022-11-16T10:58:18.792Z,990.53
2022-11-16T10:59:18.458Z,990.50
2022-11-16T11:00:22.232Z,990.50
2022-11-16T11:01:18.323Z,990.50
2022-11-16T11:02:18.490Z,990.46
2022-11-16T11:03:18.300Z,990.49
2022-11-16T11:04:18.319Z,990.51
2022-11-16T11:05:18.342Z,990.51
2022-11-16T11:06:19.759Z,990.56
2022-11-16T11:07:18.376Z,990.52
2022-11-16T11:08:18.342Z,990.50
2022-11-16T11:09:18.677Z,990.55
2022-11-16T11:10:18.268Z,990.43
2022-11-16T11:11:18.368Z,990.49
2022-11-16T11:12:18.359Z,990.56
2022-11-16T11:13:18.359Z,990.58
2022-11-16T11:14:18.369Z,990.58
2022-11-16T11:15:24.275Z,990.56
2022-11-16T11:16:18.308Z,990.63
2022-11-16T11:17:18.389Z,990.58
2022-11-16T11:18:18.188Z,990.57
2022-11-16T11:19:18.549Z,990.57
2022-11-16T11:20:18.488Z,990.57
2022-11-16T11:21:18.429Z,990.57
2022-11-16T11:22:18.343Z,990.59
2022-11-16T11:23:18.435Z,990.55
2022-11-16T11:24:43.510Z,990.62
2022-11-16T11:25:18.121Z,990.55
2022-11-16T11:26:18.116Z,990.61
2022-11-16T11:27:18.326Z,990.57
2022-11-16T11:28:18.536Z,990.58
2022-11-16T11:29:18.587Z,990.56
2022-11-16T11:30:18.087Z,990.58
2022-11-16T11:31:18.165Z,990.58
2022-11-16T11:32:23.789Z,990.60
2022-11-16T11:33:18.346Z,990.52
2022-11-16T11:34:18.577Z,990.56
2022-11-16T11:35:18.605Z,990.58
2022-11-16T11:36:18.075Z,990.64
2022-11-16T11:37:18.726Z,990.58
2022-11-16T11:38:18.745Z,990.60
2022-11-16T11:39:18.094Z,990.55
2022-11-16T11:40:18.033Z,990.47
2022-11-16T11:41:18.134Z,990.50
2022-11-16T11:42:18.146Z,990.49
2022-11-16T11:43:19.013Z,990.52
2022-11-16T11:44:18.234Z,990.50
2022-11-16T11:45:18.407Z,990.49
2022-11-16T11:46:18.384Z,990.47
2022-11-16T11:47:55.538Z,990.49
2022-11-16T11:48:18.005Z,990.42
2022-11-16T11:49:18.084Z,990.51
2022-11-16T11:50:18.193Z,990.47
2022-11-16T11:51:18.020Z,990.48
2022-11-16T11:52:18.016Z,990.42
2022-11-16T11:53:18.213Z,990.43
2022-11-16T11:54:18.015Z,990.41
2022-11-16T11:55:18.021Z,990.44
2022-11-16T11:56:18.543Z,990.46
2022-11-16T11:57:17.933Z,990.43
2022-11-16T11:58:17.942Z,990.40
2022-11-16T11:59:17.892Z,990.43
2022-11-16T12:00:17.933Z,990.39
2022-11-16T12:01:23.768Z,990.43
2022-11-16T12:02:17.872Z,990.43
2022-11-16T12:03:17.959Z,990.44
2022-11-16T12:04:17.870Z,990.37
2022-11-16T12:05:17.885Z,990.39
2022-11-16T12:06:17.921Z,990.30
2022-11-16T12:07:17.922Z,990.33
2022-11-16T12:08:17.861Z,990.34
2022-11-16T12:09:17.901Z,990.33
2022-11-16T12:10:17.912Z,990.32
2022-11-16T12:11:17.919Z,990.34
2022-11-16T12:12:17.820Z,990.35
2022-11-16T12:13:17.833Z,990.34
2022-11-16T12:14:17.830Z,990.32
2022-11-16T12:15:18.042Z,990.34
2022-11-16T12:16:17.848Z,990.31
2022-11-16T12:17:17.857Z,990.32
2022-11-16T12:18:17.971Z,990.27
2022-11-16T12:19:17.765Z,990.20
2022-11-16T12:20:17.979Z,990.21
2022-11-16T12:21:17.789Z,990.24
2022-11-16T12:22:17.875Z,990.26
2022-11-16T12:23:17.719Z,990.27
2022-11-16T12:24:17.717Z,990.21
2022-11-16T12:25:18.107Z,990.18
2022-11-16T12:26:17.708Z,990.18
2022-11-16T12:27:17.697Z,990.16
2022-11-16T12:28:17.696Z,990.05
2022-11-16T12:29:17.727Z,990.05
2022-11-16T12:30:17.736Z,990.07
2022-11-16T12:31:17.736Z,990.06
2022-11-16T12:32:17.670Z,990.05
2022-11-16T12:33:17.646Z,990.02
2022-11-16T12:34:17.677Z,990.04